Time;durP1;ratioP1;P1;durP2;ratioP2;P2;SDS_P1;SDS_P2;PMS_P1;PMS_P2;Temp;Humidity;BMP_temperature;BMP_pressure;BME280_temperature;BME280_humidity;BME280_pressure;Samples;Min_cycle;Max_cycle;Signal;HPM_P1;HPM_P2
2022/10/21 00:00:37;;;;;;;35.83;32.83;;;;;;;;;;5138234;27;20459;-80
2022/10/21 00:03:04;;;;;;;38.90;35.17;;;;;;;;;;5138575;27;20994;-81
2022/10/21 00:05:32;;;;;;;37.80;34.37;;;;;;;;;;5139677;27;20454;-82
2022/10/21 00:08:01;;;;;;;39.00;35.10;;;;;;;;;;5139691;27;20413;-81
2022/10/21 00:10:28;;;;;;;40.03;36.00;;;;;;;;;;5140330;27;20451;-81
2022/10/21 00:12:56;;;;;;;39.17;35.63;;;;;;;;;;5138342;27;20449;-81
2022/10/21 00:15:23;;;;;;;37.63;34.20;;;;;;;;;;5139562;27;20455;-80
2022/10/21 00:17:50;;;;;;;39.90;35.90;;;;;;;;;;5138592;27;20830;-80
2022/10/21 00:20:18;;;;;;;35.80;32.70;;;;;;;;;;5139421;27;20446;-82
2022/10/21 00:22:45;;;;;;;38.80;35.20;;;;;;;;;;5138265;27;20494;-81
2022/10/21 00:25:14;;;;;;;37.93;34.17;;;;;;;;;;5139535;27;20950;-80
2022/10/21 00:27:42;;;;;;;39.60;35.40;;;;;;;;;;5139713;27;20436;-80
2022/10/21 00:30:10;;;;;;;38.27;35.00;;;;;;;;;;5138857;27;20449;-81
2022/10/21 00:32:37;;;;;;;38.90;35.40;;;;;;;;;;5138884;27;20467;-81
2022/10/21 00:35:04;;;;;;;38.70;35.10;;;;;;;;;;5138971;27;20447;-80
2022/10/21 00:37:32;;;;;;;40.20;36.23;;;;;;;;;;5139064;27;20451;-81
2022/10/21 00:40:00;;;;;;;38.97;35.00;;;;;;;;;;5139241;27;20449;-81
2022/10/21 00:42:31;;;;;;;39.87;35.97;;;;;;;;;;5137699;27;20483;-81
2022/10/21 00:45:14;;;;;;;38.50;35.00;;;;;;;;;;5139048;27;20406;-80
2022/10/21 00:47:44;;;;;;;42.60;38.30;;;;;;;;;;5138482;27;20962;-81
2022/10/21 00:50:18;;;;;;;39.77;36.53;;;;;;;;;;5138734;27;20450;-81
2022/10/21 00:52:45;;;;;;;37.10;33.77;;;;;;;;;;5138190;27;20469;-81
2022/10/21 00:55:13;;;;;;;38.27;35.00;;;;;;;;;;5138244;27;20425;-79
2022/10/21 00:57:42;;;;;;;38.00;34.60;;;;;;;;;;5138855;27;20451;-80
2022/10/21 01:00:10;;;;;;;37.83;34.63;;;;;;;;;;5138221;27;20516;-81
2022/10/21 01:02:37;;;;;;;37.13;34.13;;;;;;;;;;5137576;27;20464;-80
2022/10/21 01:05:05;;;;;;;41.53;35.67;;;;;;;;;;5138480;27;20944;-81
2022/10/21 01:07:33;;;;;;;36.20;32.90;;;;;;;;;;5138161;27;20480;-80
2022/10/21 01:10:00;;;;;;;39.50;35.70;;;;;;;;;;5139019;27;20781;-80
2022/10/21 01:12:32;;;;;;;36.33;33.10;;;;;;;;;;5136954;27;20449;-81
2022/10/21 01:15:02;;;;;;;35.80;33.00;;;;;;;;;;5138459;27;20432;-80
2022/10/21 01:17:35;;;;;;;37.07;34.27;;;;;;;;;;5138834;27;20426;-81
2022/10/21 01:20:20;;;;;;;37.60;34.50;;;;;;;;;;5138607;27;20431;-80
2022/10/21 01:23:06;;;;;;;36.87;33.47;;;;;;;;;;5137281;27;20499;-81
2022/10/21 01:25:49;;;;;;;33.13;30.40;;;;;;;;;;5106823;27;20442;-80
2022/10/21 01:28:22;;;;;;;38.07;34.67;;;;;;;;;;5137589;27;20458;-81
2022/10/21 01:30:54;;;;;;;38.07;34.63;;;;;;;;;;5137440;27;20444;-81
2022/10/21 01:33:39;;;;;;;38.83;35.67;;;;;;;;;;5137630;27;20459;-81
2022/10/21 01:36:10;;;;;;;37.33;34.43;;;;;;;;;;5138445;27;20442;-81
2022/10/21 01:38:42;;;;;;;37.17;33.97;;;;;;;;;;5137291;27;20409;-80
2022/10/21 01:41:11;;;;;;;37.77;34.67;;;;;;;;;;5136556;27;20446;-81
2022/10/21 01:43:40;;;;;;;38.30;35.30;;;;;;;;;;5136184;27;20509;-78
2022/10/21 01:46:13;;;;;;;38.60;35.33;;;;;;;;;;5134147;28;20456;-78
2022/10/21 01:48:43;;;;;;;35.87;32.97;;;;;;;;;;5133719;28;20874;-78
2022/10/21 01:51:11;;;;;;;38.20;34.90;;;;;;;;;;5133191;28;20452;-78
2022/10/21 01:53:41;;;;;;;37.17;34.37;;;;;;;;;;5134035;28;20831;-77
2022/10/21 01:56:09;;;;;;;38.03;35.20;;;;;;;;;;5133513;27;20442;-78
2022/10/21 01:58:38;;;;;;;35.73;33.23;;;;;;;;;;5133875;28;20427;-78
2022/10/21 02:01:07;;;;;;;39.13;36.17;;;;;;;;;;5133429;28;20425;-78
2022/10/21 02:03:36;;;;;;;36.70;33.80;;;;;;;;;;5133683;28;20481;-79
2022/10/21 02:06:04;;;;;;;36.80;33.33;;;;;;;;;;5133795;28;20435;-78
2022/10/21 02:08:31;;;;;;;38.20;35.00;;;;;;;;;;5133985;28;20436;-77
2022/10/21 02:11:01;;;;;;;40.43;36.67;;;;;;;;;;5132717;27;20470;-79
2022/10/21 02:13:31;;;;;;;38.93;35.50;;;;;;;;;;5133221;28;20466;-78
2022/10/21 02:16:00;;;;;;;37.80;34.30;;;;;;;;;;5133567;28;20414;-77
2022/10/21 02:18:28;;;;;;;36.83;33.87;;;;;;;;;;5133718;28;20866;-77
2022/10/21 02:20:57;;;;;;;38.67;35.57;;;;;;;;;;5133088;27;20455;-82
2022/10/21 02:23:27;;;;;;;37.67;34.43;;;;;;;;;;5135881;27;20473;-81
2022/10/21 02:25:55;;;;;;;39.87;36.07;;;;;;;;;;5140516;27;20435;-80
2022/10/21 02:28:22;;;;;;;40.93;37.37;;;;;;;;;;5139476;27;20458;-80
2022/10/21 02:30:56;;;;;;;39.87;36.67;;;;;;;;;;5139271;27;20455;-81
2022/10/21 02:33:27;;;;;;;44.83;40.73;;;;;;;;;;5139500;27;20802;-80
2022/10/21 02:36:00;;;;;;;42.10;38.60;;;;;;;;;;5138922;27;20982;-81
2022/10/21 02:38:31;;;;;;;43.17;39.50;;;;;;;;;;5139618;27;20443;-80
2022/10/21 02:41:00;;;;;;;45.30;39.90;;;;;;;;;;5139228;27;20452;-81
2022/10/21 02:43:30;;;;;;;40.07;36.83;;;;;;;;;;5139375;27;20488;-79
2022/10/21 02:46:00;;;;;;;42.47;38.53;;;;;;;;;;5139526;27;20434;-80
2022/10/21 02:48:27;;;;;;;47.80;43.00;;;;;;;;;;5138740;27;20493;-80
2022/10/21 02:50:55;;;;;;;47.10;42.73;;;;;;;;;;5139220;27;20444;-81
2022/10/21 02:53:22;;;;;;;46.93;42.50;;;;;;;;;;5139171;27;20453;-80
2022/10/21 02:55:51;;;;;;;47.77;43.57;;;;;;;;;;5139582;27;20425;-81
2022/10/21 02:58:18;;;;;;;46.83;42.63;;;;;;;;;;5138166;27;20471;-81
2022/10/21 03:00:46;;;;;;;45.40;41.30;;;;;;;;;;5138827;27;20969;-81
2022/10/21 03:03:13;;;;;;;49.43;44.83;;;;;;;;;;5138868;27;20492;-81
2022/10/21 03:05:40;;;;;;;42.57;38.67;;;;;;;;;;5140078;27;20451;-80
2022/10/21 03:08:08;;;;;;;46.23;41.80;;;;;;;;;;5139948;27;20455;-80
2022/10/21 03:10:35;;;;;;;46.63;42.20;;;;;;;;;;5139907;27;20982;-81
2022/10/21 03:13:04;;;;;;;47.07;42.57;;;;;;;;;;5138731;27;20490;-80
2022/10/21 03:15:31;;;;;;;49.63;44.50;;;;;;;;;;5139970;27;20421;-80
2022/10/21 03:17:58;;;;;;;47.63;41.50;;;;;;;;;;5139521;27;20495;-81
2022/10/21 03:20:25;;;;;;;46.97;42.47;;;;;;;;;;5139430;27;20439;-81
2022/10/21 03:22:53;;;;;;;46.23;42.03;;;;;;;;;;5138870;27;20998;-80
2022/10/21 03:25:20;;;;;;;49.10;43.73;;;;;;;;;;5138834;27;20503;-81
2022/10/21 03:27:47;;;;;;;49.67;44.63;;;;;;;;;;5139551;27;20451;-80
2022/10/21 03:30:16;;;;;;;48.43;43.37;;;;;;;;;;5140099;27;20443;-82
2022/10/21 03:32:44;;;;;;;49.60;45.07;;;;;;;;;;5139045;27;20468;-81
2022/10/21 03:35:11;;;;;;;46.63;42.50;;;;;;;;;;5137780;27;20463;-81
2022/10/21 03:37:38;;;;;;;48.00;43.43;;;;;;;;;;5139246;27;20906;-80
2022/10/21 03:40:08;;;;;;;50.77;46.07;;;;;;;;;;5139728;27;20427;-81
2022/10/21 03:42:36;;;;;;;47.23;42.83;;;;;;;;;;5138934;27;20470;-81
2022/10/21 03:45:03;;;;;;;48.77;44.63;;;;;;;;;;5139167;27;20468;-81
2022/10/21 03:47:33;;;;;;;46.23;42.33;;;;;;;;;;5139142;27;20971;-82
2022/10/21 03:50:00;;;;;;;48.80;43.97;;;;;;;;;;5139406;27;20427;-81
2022/10/21 03:52:28;;;;;;;48.73;44.33;;;;;;;;;;5138612;27;20426;-80
2022/10/21 03:54:55;;;;;;;48.20;43.30;;;;;;;;;;5138784;27;20456;-81
2022/10/21 03:57:22;;;;;;;47.53;43.43;;;;;;;;;;5139563;27;21240;-80
2022/10/21 03:59:49;;;;;;;48.93;44.20;;;;;;;;;;5138268;27;20441;-80
2022/10/21 04:02:17;;;;;;;46.43;42.27;;;;;;;;;;5138149;27;20418;-81
2022/10/21 04:04:46;;;;;;;46.30;42.60;;;;;;;;;;5139053;27;20449;-80
2022/10/21 04:07:13;;;;;;;48.23;43.43;;;;;;;;;;5138560;27;20521;-81
2022/10/21 04:09:40;;;;;;;49.17;44.47;;;;;;;;;;5139111;27;20459;-81
2022/10/21 04:12:07;;;;;;;45.73;41.40;;;;;;;;;;5138628;27;20554;-81
2022/10/21 04:14:35;;;;;;;46.53;42.10;;;;;;;;;;5138112;27;20498;-81
2022/10/21 04:17:03;;;;;;;46.57;42.00;;;;;;;;;;5138459;27;20430;-80
2022/10/21 04:19:30;;;;;;;46.97;42.60;;;;;;;;;;5138521;27;20447;-80
2022/10/21 04:21:59;;;;;;;43.80;39.87;;;;;;;;;;5137975;27;20780;-81
2022/10/21 04:24:26;;;;;;;47.87;43.33;;;;;;;;;;5138272;27;20486;-80
2022/10/21 04:26:53;;;;;;;46.37;42.27;;;;;;;;;;5137719;27;20425;-81
2022/10/21 04:29:20;;;;;;;47.30;43.00;;;;;;;;;;5138932;27;20887;-81
2022/10/21 04:31:48;;;;;;;47.07;42.60;;;;;;;;;;5137807;27;20443;-80
2022/10/21 04:34:16;;;;;;;44.83;40.93;;;;;;;;;;5138169;27;20470;-80
2022/10/21 04:36:43;;;;;;;45.20;41.10;;;;;;;;;;5138913;27;20451;-80
2022/10/21 04:39:12;;;;;;;45.63;41.13;;;;;;;;;;5138248;27;20446;-79
2022/10/21 04:41:39;;;;;;;45.13;40.90;;;;;;;;;;5137118;27;20846;-80
2022/10/21 04:44:06;;;;;;;45.97;41.47;;;;;;;;;;5138670;27;20457;-81
2022/10/21 04:46:34;;;;;;;45.13;41.00;;;;;;;;;;5138063;27;20429;-80
2022/10/21 04:49:01;;;;;;;44.57;40.67;;;;;;;;;;5138163;27;20432;-80
2022/10/21 04:51:29;;;;;;;44.13;40.53;;;;;;;;;;5137425;27;20468;-80
2022/10/21 04:53:56;;;;;;;44.90;41.10;;;;;;;;;;5137941;27;20444;-81
2022/10/21 04:56:25;;;;;;;44.47;40.17;;;;;;;;;;5137667;27;20414;-80
2022/10/21 04:58:52;;;;;;;47.27;42.87;;;;;;;;;;5137947;27;20443;-81
2022/10/21 05:01:20;;;;;;;45.63;41.60;;;;;;;;;;5137174;27;20443;-81
2022/10/21 05:03:47;;;;;;;45.63;41.00;;;;;;;;;;5137328;27;20855;-80
2022/10/21 05:06:15;;;;;;;45.07;40.77;;;;;;;;;;5137968;27;20429;-81
2022/10/21 05:08:42;;;;;;;44.10;39.93;;;;;;;;;;5138066;27;20443;-81
2022/10/21 05:11:09;;;;;;;45.90;42.00;;;;;;;;;;5137502;27;20457;-81
2022/10/21 05:13:38;;;;;;;45.97;41.30;;;;;;;;;;5136876;27;20485;-80
2022/10/21 05:16:06;;;;;;;46.00;41.47;;;;;;;;;;5137831;27;20426;-80
2022/10/21 05:18:33;;;;;;;46.73;42.43;;;;;;;;;;5137890;27;20451;-81
2022/10/21 05:21:01;;;;;;;47.50;42.60;;;;;;;;;;5136504;27;20430;-81
2022/10/21 05:23:28;;;;;;;43.90;39.90;;;;;;;;;;5136617;27;20995;-80
2022/10/21 05:25:55;;;;;;;45.07;41.17;;;;;;;;;;5137536;27;20455;-81
2022/10/21 05:28:23;;;;;;;43.53;39.73;;;;;;;;;;5136904;27;20764;-81
2022/10/21 05:30:53;;;;;;;44.10;40.20;;;;;;;;;;5136812;27;20421;-81
2022/10/21 05:33:20;;;;;;;44.80;40.37;;;;;;;;;;5136393;27;20462;-81
2022/10/21 05:35:55;;;;;;;45.30;41.10;;;;;;;;;;5137435;27;20438;-81
2022/10/21 05:38:23;;;;;;;44.97;40.77;;;;;;;;;;5137593;27;20786;-80
2022/10/21 05:40:50;;;;;;;45.67;41.07;;;;;;;;;;5137472;27;20447;-80
2022/10/21 05:43:17;;;;;;;43.63;39.70;;;;;;;;;;5137577;27;20478;-81
2022/10/21 05:45:44;;;;;;;43.37;39.70;;;;;;;;;;5137133;27;20479;-81
2022/10/21 05:48:13;;;;;;;43.40;39.17;;;;;;;;;;5137019;28;20439;-80
2022/10/21 05:50:40;;;;;;;43.83;39.77;;;;;;;;;;5137018;28;20458;-80
2022/10/21 05:53:08;;;;;;;44.07;40.00;;;;;;;;;;5136296;27;21014;-80
2022/10/21 05:55:35;;;;;;;44.00;40.37;;;;;;;;;;5137791;27;20454;-80
2022/10/21 05:58:02;;;;;;;42.37;38.87;;;;;;;;;;5137399;27;21211;-80
2022/10/21 06:00:30;;;;;;;45.13;41.33;;;;;;;;;;5142269;27;20451;-81
2022/10/21 06:02:57;;;;;;;44.37;40.37;;;;;;;;;;5141509;27;20857;-80
2022/10/21 06:05:26;;;;;;;45.50;41.70;;;;;;;;;;5141651;27;20456;-81
2022/10/21 06:07:53;;;;;;;44.47;40.13;;;;;;;;;;5141857;27;20432;-80
2022/10/21 06:10:21;;;;;;;40.77;37.30;;;;;;;;;;5141563;27;20446;-80
2022/10/21 06:12:48;;;;;;;43.77;40.07;;;;;;;;;;5140996;27;20453;-81
2022/10/21 06:15:15;;;;;;;45.73;41.27;;;;;;;;;;5141820;27;20398;-80
2022/10/21 06:17:42;;;;;;;43.07;39.37;;;;;;;;;;5142046;27;20429;-81
2022/10/21 06:20:10;;;;;;;42.17;38.70;;;;;;;;;;5140698;27;20424;-80
2022/10/21 06:22:39;;;;;;;42.20;38.40;;;;;;;;;;5140331;27;20513;-80
2022/10/21 06:25:07;;;;;;;44.73;40.33;;;;;;;;;;5141097;27;20467;-81
2022/10/21 06:27:34;;;;;;;42.67;39.27;;;;;;;;;;5140899;27;20935;-81
2022/10/21 06:30:01;;;;;;;42.77;39.20;;;;;;;;;;5138470;27;20807;-79
2022/10/21 06:32:29;;;;;;;42.17;38.50;;;;;;;;;;5136926;27;20961;-78
2022/10/21 06:34:56;;;;;;;41.67;38.10;;;;;;;;;;5138393;27;20829;-81
2022/10/21 06:37:23;;;;;;;42.60;38.90;;;;;;;;;;5140229;27;20448;-80
2022/10/21 06:39:52;;;;;;;40.97;37.43;;;;;;;;;;5141282;27;20458;-81
2022/10/21 06:42:19;;;;;;;40.37;37.23;;;;;;;;;;5138931;27;20417;-79
2022/10/21 06:44:46;;;;;;;42.70;39.03;;;;;;;;;;5137607;27;20453;-78
2022/10/21 06:47:14;;;;;;;39.97;36.60;;;;;;;;;;5137521;27;20418;-78
2022/10/21 06:49:41;;;;;;;41.80;37.57;;;;;;;;;;5137079;27;20447;-79
2022/10/21 06:52:08;;;;;;;42.43;38.93;;;;;;;;;;5136671;27;20934;-79
2022/10/21 06:54:36;;;;;;;41.73;38.33;;;;;;;;;;5136692;27;20472;-77
2022/10/21 06:57:06;;;;;;;42.57;39.03;;;;;;;;;;5138285;27;20417;-80
2022/10/21 06:59:33;;;;;;;40.83;37.43;;;;;;;;;;5137729;27;20446;-78
2022/10/21 07:02:00;;;;;;;43.00;39.40;;;;;;;;;;5137454;27;20447;-79
2022/10/21 07:04:28;;;;;;;41.97;37.80;;;;;;;;;;5137494;27;20526;-78
2022/10/21 07:06:55;;;;;;;38.83;35.67;;;;;;;;;;5137586;27;20428;-79
2022/10/21 07:09:23;;;;;;;45.63;41.53;;;;;;;;;;5137739;27;20450;-79
2022/10/21 07:11:50;;;;;;;40.70;37.30;;;;;;;;;;5136994;27;20417;-79
2022/10/21 07:14:19;;;;;;;39.67;36.50;;;;;;;;;;5137160;27;20452;-77
2022/10/21 07:16:47;;;;;;;41.13;37.37;;;;;;;;;;5137554;27;20448;-79
2022/10/21 07:19:14;;;;;;;38.77;35.23;;;;;;;;;;5136043;27;20443;-78
2022/10/21 07:21:43;;;;;;;38.00;35.13;;;;;;;;;;5137024;27;20454;-79
2022/10/21 07:24:10;;;;;;;41.73;38.23;;;;;;;;;;5136817;27;20466;-78
2022/10/21 07:26:37;;;;;;;37.73;34.97;;;;;;;;;;5136693;27;20459;-86
2022/10/21 07:29:05;;;;;;;38.57;35.60;;;;;;;;;;5124912;27;20923;-84
2022/10/21 07:31:36;;;;;;;38.37;35.47;;;;;;;;;;5138981;27;20476;-84
2022/10/21 07:34:04;;;;;;;38.13;35.27;;;;;;;;;;5140311;27;20477;-86
2022/10/21 07:36:32;;;;;;;38.70;35.60;;;;;;;;;;5139012;27;20447;-83
2022/10/21 07:39:01;;;;;;;37.57;34.67;;;;;;;;;;5138662;27;20473;-83
2022/10/21 07:41:30;;;;;;;35.27;32.57;;;;;;;;;;5138468;27;20439;-83
2022/10/21 07:43:58;;;;;;;35.40;32.73;;;;;;;;;;5136831;27;20467;-77
2022/10/21 07:46:26;;;;;;;35.20;32.37;;;;;;;;;;5135611;27;20537;-75
2022/10/21 07:48:54;;;;;;;34.93;32.43;;;;;;;;;;5136017;27;20451;-74
2022/10/21 07:51:23;;;;;;;34.90;32.27;;;;;;;;;;5135150;27;20418;-74
2022/10/21 07:53:52;;;;;;;33.87;31.60;;;;;;;;;;5135102;27;20519;-75
2022/10/21 07:56:20;;;;;;;34.23;31.90;;;;;;;;;;5135517;27;20474;-75
2022/10/21 07:58:47;;;;;;;34.03;31.73;;;;;;;;;;5135443;27;20931;-74
2022/10/21 08:01:16;;;;;;;34.13;31.93;;;;;;;;;;5134728;27;20444;-75
2022/10/21 08:03:43;;;;;;;32.70;30.60;;;;;;;;;;5135639;27;20452;-77
2022/10/21 08:06:13;;;;;;;32.47;30.00;;;;;;;;;;5136555;27;20689;-84
2022/10/21 08:08:40;;;;;;;30.40;28.40;;;;;;;;;;5138472;27;20460;-83
2022/10/21 08:11:08;;;;;;;30.43;28.43;;;;;;;;;;5138219;27;20429;-82
2022/10/21 08:13:36;;;;;;;29.77;27.90;;;;;;;;;;5137946;27;20548;-83
2022/10/21 08:16:05;;;;;;;30.10;28.10;;;;;;;;;;5138341;27;20447;-84
2022/10/21 08:18:33;;;;;;;32.63;30.10;;;;;;;;;;5137982;27;20463;-82
2022/10/21 08:21:00;;;;;;;29.80;27.90;;;;;;;;;;5136678;27;20950;-83
2022/10/21 08:23:29;;;;;;;30.63;28.83;;;;;;;;;;5137643;27;20448;-83
2022/10/21 08:25:57;;;;;;;30.60;28.80;;;;;;;;;;5138048;27;20491;-83
2022/10/21 08:28:25;;;;;;;28.13;26.47;;;;;;;;;;5135870;27;20426;-74
2022/10/21 08:30:53;;;;;;;26.70;25.20;;;;;;;;;;5134808;27;20447;-75
2022/10/21 08:33:20;;;;;;;29.10;27.17;;;;;;;;;;5134908;27;20467;-74
2022/10/21 08:35:48;;;;;;;29.07;27.37;;;;;;;;;;5134756;27;20426;-75
2022/10/21 08:38:15;;;;;;;27.67;26.17;;;;;;;;;;5135020;27;20413;-75
2022/10/21 08:40:45;;;;;;;27.60;25.90;;;;;;;;;;5134825;27;20421;-75
2022/10/21 08:43:18;;;;;;;27.00;25.27;;;;;;;;;;5134206;27;20449;-77
2022/10/21 08:45:46;;;;;;;26.23;24.03;;;;;;;;;;5134884;27;20470;-77
2022/10/21 08:48:15;;;;;;;27.10;25.40;;;;;;;;;;5134681;27;20452;-76
2022/10/21 08:50:45;;;;;;;27.03;25.53;;;;;;;;;;5134308;27;20920;-72
2022/10/21 08:53:14;;;;;;;26.10;24.57;;;;;;;;;;5133275;27;20460;-75
2022/10/21 08:55:42;;;;;;;24.83;23.43;;;;;;;;;;5136003;27;20865;-73
2022/10/21 08:58:14;;;;;;;25.60;24.20;;;;;;;;;;5154090;27;20421;-73
2022/10/21 09:00:46;;;;;;;26.27;24.83;;;;;;;;;;5155230;27;20427;-74
2022/10/21 09:03:18;;;;;;;26.60;25.10;;;;;;;;;;5160817;27;20444;-81
2022/10/21 09:06:02;;;;;;;25.83;24.07;;;;;;;;;;5161296;27;20941;-82
2022/10/21 09:08:34;;;;;;;24.17;22.60;;;;;;;;;;5161673;27;20443;-83
2022/10/21 09:11:03;;;;;;;23.07;21.87;;;;;;;;;;5160812;27;20419;-84
2022/10/21 09:13:39;;;;;;;23.60;22.27;;;;;;;;;;5161745;27;20482;-83
2022/10/21 09:16:11;;;;;;;24.50;23.10;;;;;;;;;;5161797;27;20445;-83
2022/10/21 09:18:47;;;;;;;24.33;22.90;;;;;;;;;;5162155;27;20404;-83
2022/10/21 09:21:18;;;;;;;23.27;22.00;;;;;;;;;;5160919;27;20427;-83
2022/10/21 09:23:53;;;;;;;22.50;21.30;;;;;;;;;;5161105;27;20488;-83
2022/10/21 09:26:33;;;;;;;23.47;22.17;;;;;;;;;;5162030;27;20459;-84
2022/10/21 09:29:03;;;;;;;21.97;20.80;;;;;;;;;;5161620;27;20398;-83
2022/10/21 09:31:30;;;;;;;24.50;23.00;;;;;;;;;;5159258;27;20451;-85
2022/10/21 09:34:00;;;;;;;22.57;21.13;;;;;;;;;;5140221;27;20471;-83
2022/10/21 09:36:30;;;;;;;22.73;21.43;;;;;;;;;;5142814;27;20439;-84
2022/10/21 09:38:59;;;;;;;21.90;20.70;;;;;;;;;;5142225;27;20448;-85
2022/10/21 09:41:29;;;;;;;21.77;20.47;;;;;;;;;;5142412;27;20449;-85
2022/10/21 09:43:57;;;;;;;21.67;20.50;;;;;;;;;;5141492;27;20487;-83
2022/10/21 09:46:25;;;;;;;21.07;19.80;;;;;;;;;;5142055;27;20481;-82
2022/10/21 09:48:53;;;;;;;20.93;19.57;;;;;;;;;;5141842;27;20461;-81
2022/10/21 09:51:23;;;;;;;21.83;20.43;;;;;;;;;;5142106;27;20948;-82
2022/10/21 09:53:52;;;;;;;22.13;20.80;;;;;;;;;;5142024;27;20476;-82
2022/10/21 09:56:20;;;;;;;22.33;21.03;;;;;;;;;;5141309;27;20474;-81
2022/10/21 09:58:52;;;;;;;21.77;20.47;;;;;;;;;;5142143;27;20432;-81
2022/10/21 10:01:21;;;;;;;22.57;21.10;;;;;;;;;;5141369;28;20407;-81
2022/10/21 10:03:50;;;;;;;22.10;20.80;;;;;;;;;;5141287;27;20807;-82
2022/10/21 10:06:33;;;;;;;21.03;19.63;;;;;;;;;;5141158;27;20494;-84
2022/10/21 10:09:08;;;;;;;22.03;20.83;;;;;;;;;;5139588;27;20422;-82
2022/10/21 10:11:35;;;;;;;21.10;20.00;;;;;;;;;;5138314;28;20444;-85
2022/10/21 10:14:19;;;;;;;20.77;19.57;;;;;;;;;;5142430;27;20465;-85
2022/10/21 10:16:46;;;;;;;20.53;19.13;;;;;;;;;;5138710;27;20826;-80
2022/10/21 10:19:18;;;;;;;21.20;19.80;;;;;;;;;;5139737;27;20446;-84
2022/10/21 10:21:46;;;;;;;21.03;19.97;;;;;;;;;;5139193;28;20428;-82
2022/10/21 10:24:17;;;;;;;21.13;19.90;;;;;;;;;;5137661;28;20468;-76
2022/10/21 10:26:45;;;;;;;21.53;20.00;;;;;;;;;;5133665;28;20517;-76
2022/10/21 10:29:26;;;;;;;20.60;19.53;;;;;;;;;;5132892;27;20974;-76
2022/10/21 10:31:55;;;;;;;21.60;20.00;;;;;;;;;;5132771;28;20455;-77
2022/10/21 10:34:24;;;;;;;21.00;19.73;;;;;;;;;;5133305;28;20477;-76
2022/10/21 10:37:00;;;;;;;21.90;20.47;;;;;;;;;;5132911;27;20419;-76
2022/10/21 10:39:29;;;;;;;22.67;21.10;;;;;;;;;;5133623;28;20423;-76
2022/10/21 10:41:57;;;;;;;21.90;20.40;;;;;;;;;;5132648;27;20435;-77
2022/10/21 10:44:28;;;;;;;24.00;21.50;;;;;;;;;;5133371;27;20453;-76
2022/10/21 10:46:56;;;;;;;22.27;20.87;;;;;;;;;;5136548;27;20441;-77
2022/10/21 10:49:26;;;;;;;23.97;21.77;;;;;;;;;;5138358;27;20447;-80
2022/10/21 10:52:20;;;;;;;24.00;22.30;;;;;;;;;;5136617;27;20458;-74
2022/10/21 10:54:48;;;;;;;23.43;21.93;;;;;;;;;;5136188;27;20439;-73
2022/10/21 10:57:16;;;;;;;23.13;21.93;;;;;;;;;;5136815;27;20475;-74
2022/10/21 10:59:45;;;;;;;22.90;21.60;;;;;;;;;;5136529;27;20430;-73
2022/10/21 11:02:19;;;;;;;24.10;22.60;;;;;;;;;;5136110;27;20452;-75
2022/10/21 11:04:51;;;;;;;22.57;21.27;;;;;;;;;;5136863;27;20814;-73
2022/10/21 11:07:22;;;;;;;24.00;22.13;;;;;;;;;;5136534;27;20790;-74
2022/10/21 11:09:50;;;;;;;22.03;20.40;;;;;;;;;;5135808;27;20533;-74
2022/10/21 11:12:20;;;;;;;22.30;21.00;;;;;;;;;;5134813;27;20901;-75
2022/10/21 11:14:50;;;;;;;22.00;20.53;;;;;;;;;;5136556;27;20448;-76
2022/10/21 11:17:19;;;;;;;23.63;21.83;;;;;;;;;;5136651;27;20474;-75
2022/10/21 11:19:51;;;;;;;22.90;21.57;;;;;;;;;;5136468;27;20450;-75
2022/10/21 11:22:24;;;;;;;22.80;21.40;;;;;;;;;;5136083;27;20441;-78
2022/10/21 11:25:06;;;;;;;21.97;20.67;;;;;;;;;;5134819;27;20477;-77
2022/10/21 11:27:46;;;;;;;23.37;22.07;;;;;;;;;;5136382;27;20477;-75
2022/10/21 11:30:16;;;;;;;22.87;21.17;;;;;;;;;;5136326;27;20918;-75
2022/10/21 11:32:57;;;;;;;22.90;21.40;;;;;;;;;;5135297;27;20473;-75
2022/10/21 11:35:33;;;;;;;23.03;21.47;;;;;;;;;;5135559;27;20969;-75
2022/10/21 11:38:13;;;;;;;22.20;20.90;;;;;;;;;;5135575;27;20427;-77
2022/10/21 11:40:41;;;;;;;21.77;20.40;;;;;;;;;;5136029;27;20438;-75
2022/10/21 11:43:19;;;;;;;22.03;20.63;;;;;;;;;;5135123;27;20475;-76
2022/10/21 11:45:56;;;;;;;21.70;20.47;;;;;;;;;;5135989;27;20466;-77
2022/10/21 11:48:28;;;;;;;22.80;21.40;;;;;;;;;;5135551;27;20438;-77
2022/10/21 11:51:00;;;;;;;23.50;22.00;;;;;;;;;;5135388;27;20407;-79
2022/10/21 11:53:33;;;;;;;22.73;21.13;;;;;;;;;;5136065;27;20830;-77
2022/10/21 11:56:06;;;;;;;24.37;22.50;;;;;;;;;;5134836;27;20436;-76
2022/10/21 11:58:39;;;;;;;24.83;23.30;;;;;;;;;;5135780;27;20805;-77
2022/10/21 12:01:13;;;;;;;25.83;24.17;;;;;;;;;;5134775;27;20444;-76
2022/10/21 12:03:48;;;;;;;25.10;23.13;;;;;;;;;;5135223;27;20559;-78
2022/10/21 12:06:21;;;;;;;25.27;23.87;;;;;;;;;;5135448;27;20447;-76
2022/10/21 12:08:52;;;;;;;27.30;25.50;;;;;;;;;;5135279;27;20434;-76
2022/10/21 12:11:22;;;;;;;28.23;26.43;;;;;;;;;;5134423;27;20443;-76
2022/10/21 12:13:52;;;;;;;26.40;24.67;;;;;;;;;;5134871;27;20500;-76
2022/10/21 12:16:21;;;;;;;25.00;23.40;;;;;;;;;;5135545;27;20437;-76
2022/10/21 12:18:50;;;;;;;27.23;25.60;;;;;;;;;;5135531;27;20452;-75
2022/10/21 12:21:21;;;;;;;27.50;25.80;;;;;;;;;;5134642;27;20455;-76
2022/10/21 12:23:51;;;;;;;26.30;24.70;;;;;;;;;;5135308;27;20500;-77
2022/10/21 12:26:20;;;;;;;24.60;23.17;;;;;;;;;;5134946;27;20490;-75
2022/10/21 12:28:51;;;;;;;25.30;23.80;;;;;;;;;;5135302;27;20449;-75
2022/10/21 12:31:28;;;;;;;23.53;22.07;;;;;;;;;;5134820;27;20433;-76
2022/10/21 12:33:55;;;;;;;24.60;23.20;;;;;;;;;;5135095;27;20464;-75
2022/10/21 12:36:41;;;;;;;25.10;23.60;;;;;;;;;;5135020;27;20942;-76
2022/10/21 12:39:11;;;;;;;25.77;24.37;;;;;;;;;;5135147;27;20443;-76
2022/10/21 12:41:39;;;;;;;25.23;23.80;;;;;;;;;;5134357;27;20434;-76
2022/10/21 12:44:15;;;;;;;27.43;25.93;;;;;;;;;;5134781;27;20464;-76
2022/10/21 12:46:43;;;;;;;26.33;24.20;;;;;;;;;;5134658;27;20466;-76
2022/10/21 12:49:21;;;;;;;25.67;23.90;;;;;;;;;;5134906;27;20445;-75
2022/10/21 12:51:52;;;;;;;23.60;22.40;;;;;;;;;;5134141;27;20426;-76
2022/10/21 12:54:21;;;;;;;26.67;25.13;;;;;;;;;;5134846;27;20473;-76
2022/10/21 12:56:50;;;;;;;23.50;22.10;;;;;;;;;;5133704;27;20517;-76
2022/10/21 12:59:28;;;;;;;24.00;22.80;;;;;;;;;;5134425;27;20907;-77
2022/10/21 13:02:14;;;;;;;25.20;23.70;;;;;;;;;;5133565;27;20441;-76
2022/10/21 13:04:45;;;;;;;22.90;21.80;;;;;;;;;;5134535;27;20434;-76
2022/10/21 13:07:38;;;;;;;23.00;21.70;;;;;;;;;;5134255;27;20508;-77
2022/10/21 13:10:16;;;;;;;22.90;21.50;;;;;;;;;;5134762;27;20408;-76
2022/10/21 13:12:46;;;;;;;26.50;24.70;;;;;;;;;;5133557;27;20458;-76
2022/10/21 13:15:47;;;;;;;30.60;28.60;;;;;;;;;;5134489;27;20437;-76
2022/10/21 13:18:34;;;;;;;26.30;24.30;;;;;;;;;;5090996;28;20815;-77
2022/10/21 13:21:01;;;;;;;24.70;22.93;;;;;;;;;;5090220;28;20452;-76
2022/10/21 13:23:32;;;;;;;24.13;22.70;;;;;;;;;;5116398;27;20971;-75
2022/10/21 13:26:06;;;;;;;24.90;23.50;;;;;;;;;;5134143;27;20412;-76
2022/10/21 13:28:34;;;;;;;25.87;24.13;;;;;;;;;;5134336;27;20416;-76
2022/10/21 13:31:02;;;;;;;25.80;24.50;;;;;;;;;;5133689;27;20453;-77
2022/10/21 13:33:31;;;;;;;26.20;24.53;;;;;;;;;;5133519;27;21005;-77
2022/10/21 13:36:02;;;;;;;26.87;25.27;;;;;;;;;;5134651;27;20460;-81
2022/10/21 13:38:32;;;;;;;26.57;24.97;;;;;;;;;;5135482;27;20433;-80
2022/10/21 13:41:00;;;;;;;25.00;23.70;;;;;;;;;;5134803;27;20428;-79
2022/10/21 13:43:29;;;;;;;26.13;24.73;;;;;;;;;;5134076;27;20451;-75
2022/10/21 13:46:03;;;;;;;26.53;25.00;;;;;;;;;;5133588;27;20823;-80
2022/10/21 13:48:31;;;;;;;26.03;24.53;;;;;;;;;;5133857;27;20426;-77
2022/10/21 13:51:10;;;;;;;25.90;24.40;;;;;;;;;;5133588;28;20428;-76
2022/10/21 13:53:44;;;;;;;23.67;22.40;;;;;;;;;;5133566;27;20481;-75
2022/10/21 13:56:18;;;;;;;26.20;24.60;;;;;;;;;;5133678;27;20458;-76
2022/10/21 13:58:46;;;;;;;24.40;23.20;;;;;;;;;;5133999;28;20434;-76
2022/10/21 14:01:15;;;;;;;24.17;22.50;;;;;;;;;;5133080;27;20461;-76
2022/10/21 14:03:43;;;;;;;24.33;22.87;;;;;;;;;;5133097;27;20459;-77
2022/10/21 14:06:11;;;;;;;23.60;22.23;;;;;;;;;;5133780;28;20468;-76
2022/10/21 14:08:41;;;;;;;23.07;21.53;;;;;;;;;;5133833;28;20446;-76
2022/10/21 14:11:13;;;;;;;23.40;22.07;;;;;;;;;;5133758;28;20436;-76
2022/10/21 14:13:40;;;;;;;22.20;20.70;;;;;;;;;;5133402;27;20472;-77
2022/10/21 14:16:08;;;;;;;22.83;20.90;;;;;;;;;;5134054;27;20457;-77
2022/10/21 14:18:37;;;;;;;23.10;21.70;;;;;;;;;;5133335;27;20439;-75
2022/10/21 14:21:05;;;;;;;23.27;22.07;;;;;;;;;;5136757;27;20456;-75
2022/10/21 14:23:33;;;;;;;24.20;22.60;;;;;;;;;;5136702;27;20960;-75
2022/10/21 14:26:05;;;;;;;23.43;22.03;;;;;;;;;;5137745;27;20441;-74
2022/10/21 14:28:33;;;;;;;22.83;21.50;;;;;;;;;;5136757;27;21034;-74
2022/10/21 14:31:01;;;;;;;23.77;22.17;;;;;;;;;;5136730;27;20489;-74